Pearl, Vermont
Current Conditions -  °F | °C
As of 12:53 AM on Wednesday 28 Jan 2015 (Local Time) from KPBG Reporting Station
Light Snow Light Snow  
Wind Chill: -10°   Ceiling: 3200
Heat Index:   Visibility: 3mi
Dew Point:   Wind: 20mph
Humidity: 80%   Direction: 350°N
Pressure: 29.98"   Gusts: NA
Location:  44.717°N, 73.3067°W
Report Text: KPBG 280553Z AUTO 35017KT 3SM -SN OVC032 M13/M16 A2998 RMK AO2 SLP158 P0000 60000 T11281156 11111 21128 51005
Loading
Personal Weather Stations






























Interactive Weather Map New forecast layout! Learn more

10-Day Weather Forecast

Advertisements
Track Severe Weather on mobile